• Join FlightAware (Why Join?)
  • Login
  • US Flag 
05:51PM EDT


 

Airport Tracker/Info


-or-


 

Live Flight TrackerFlight Track Log ✈ N2801U ✈ 26-May-2013 ✈ KSGR - KDZB

Flight Track Log - Related Links

Times and Time Zones

All times are in EDT time to prevent confusion due to time zone crossing. See the N2801U flight status page for this flight to view local times or setup timezone preferences in your user account.

Time Position Orientation Groundspeed Altitude Reporting Facility
EDT Latitude Longitude Course Direction KTS MPH feet Rate Location/Type
01:47PM 29.6267 -95.7011 292° West 101 116 1,200  Level Houston Center
01:48PM 29.6278 -95.7081 280° West 101 116 1,200 60 Level Houston Center
01:48PM 29.6353 -95.7289 293° West 96 110 1,300 180 Climbing Houston Center
01:49PM 29.6392 -95.7347 307° West 95 109 1,400 240 Climbing Houston Center
01:49PM 29.6544 -95.7531 314° West 97 112 1,600 180 Climbing Houston Center
01:50PM 29.6567 -95.7575 300° West 94 108 1,600 240 Level Houston Center
01:50PM 29.6669 -95.7781 300° West 92 106 1,900 240 Climbing Houston Center
01:51PM 29.6700 -95.7825 308° West 92 106 1,900 240 Level Houston Center
01:51PM 29.6819 -95.8028 304° West 92 106 2,200 240 Climbing Houston Center
01:52PM 29.6828 -95.8075 281° West 91 105 2,200 240 Level Houston Center
01:52PM 29.6989 -95.8297 310° West 98 113 2,500 240 Climbing Houston Center
01:53PM 29.7186 -95.9345 292° West  Level Estimated
01:53PM 29.6992 -95.8325 277° West 94 108 2,500  Level Houston Center
01:53PM 29.7117 -95.8547 303° West 94 108 2,800 240 Climbing Houston Center
01:54PM 29.7150 -95.8639 293° West 95 109 2,800 180 Level Houston Center
01:54PM 29.7225 -95.8822 295° West 92 106 3,000 180 Climbing Houston Center
01:55PM 29.7247 -95.8919 285° West 95 109 3,000 180 Level Houston Center
01:55PM 29.7314 -95.9125 290° West 96 110 3,200 240 Climbing Houston Center
01:56PM 29.7353 -95.9194 303° West 94 108 3,300 240 Climbing Houston Center
01:57PM 29.7422 -95.9403 291° West 91 105 3,500 180 Climbing Houston Center
01:57PM 29.7442 -95.9467 289° West 92 106 3,500 180 Level Houston Center
01:58PM 29.7531 -95.9678 296° West 97 112 3,700 180 Climbing Houston Center
01:58PM 29.7558 -95.9744 296° West 93 107 3,700 60 Level Houston Center
01:59PM 29.7658 -95.9953 299° West 100 115 3,800 180 Climbing Houston Center
01:59PM 29.7675 -96.0022 285° West 97 112 3,900 180 Climbing Houston Center
02:00PM 29.7747 -96.0256 290° West 97 112 4,000  Climbing Houston Center
02:00PM 29.7781 -96.0358 290° West 98 113 3,900 -240 Descending Houston Center
02:01PM 29.7861 -96.0603 291° West 116 133 3,800 -240 Descending Houston Center
02:01PM 29.7897 -96.0692 295° West 107 123 3,700 -240 Descending Houston Center
02:02PM 29.7972 -96.0928 290° West 115 132 3,600 -240 Descending Houston Center
02:02PM 29.8014 -96.1033 294° West 113 130 3,500 -120 Descending Houston Center
02:03PM 29.8108 -96.1272 295° West 111 128 3,500  Level Houston Center
02:03PM 29.8133 -96.1369 287° West 114 131 3,500 60 Level Houston Center
02:04PM 29.8217 -96.1572 295° West 108 124 3,600 60 Climbing Houston Center
02:04PM 29.8250 -96.1678 290° West 106 122 3,600  Level Houston Center
02:05PM 29.8353 -96.1919 296° West 107 123 3,600 60 Level Houston Center
02:05PM 29.8364 -96.1994 280° West 106 122 3,700 -120 Climbing Houston Center
02:06PM 29.8442 -96.2244 290° West 111 128 3,500 -240 Descending Houston Center
02:06PM 29.8481 -96.2406 286° West 112 129 3,500  Level Houston Center
02:07PM 29.8558 -96.2617 293° West 110 127 3,500  Level Houston Center
02:07PM 29.8597 -96.2722 293° West 108 124 3,500  Level Houston Center
02:08PM 29.8650 -96.2944 285° West 110 127 3,500 60 Level Houston Center
02:08PM 29.8697 -96.3053 297° West 109 125 3,600 60 Climbing Houston Center
02:09PM 29.8806 -96.3389 290° West 110 127 3,600  Level Houston Center
02:10PM 29.8914 -96.3706 292° West 107 123 3,600 -60 Level Houston Center
02:11PM 29.8992 -96.4039 285° West 107 123 3,500 -60 Descending Houston Center
02:12PM 29.9103 -96.4369 291° West 110 127 3,500 -120 Level Houston Center
02:13PM 29.9189 -96.4619 292° West 108 124 3,400  Descending Houston Center
02:13PM 29.9217 -96.4764 283° West 109 125 3,500  Climbing Houston Center
02:14PM 29.9258 -96.4972 283° West 106 122 3,400  Descending Houston Center
02:14PM 29.9292 -96.5089 288° West 107 123 3,500 60 Climbing Houston Center
02:15PM 29.9350 -96.5322 286° West 107 123 3,500  Level Houston Center
02:15PM 29.9394 -96.5422 297° West 110 127 3,500 -120 Level Houston Center
02:16PM 29.9458 -96.5625 290° West 108 124 3,400  Descending Houston Center
02:16PM 29.9489 -96.5742 287° West 106 122 3,500 60 Climbing Houston Center
02:17PM 29.9611 -96.6067 293° West 109 125 3,500  Level Houston Center
02:18PM 29.9717 -96.6372 292° West 105 121 3,600  Climbing Houston Center
02:19PM 29.9822 -96.6689 291° West 105 121 3,600  Level Houston Center
02:20PM 29.9961 -96.7075 293° West 109 125 3,600 -60 Level Houston Center
02:22PM 30.0064 -96.7414 289° West 112 129 3,500 -60 Descending Houston Center
02:23PM 30.0169 -96.7736 291° West 110 127 3,500  Level Houston Center
02:24PM 30.0258 -96.8056 288° West 106 122 3,500  Level Houston Center
02:25PM 30.0397 -96.8367 297° West 109 125 3,600  Climbing Houston Center
02:26PM 30.0506 -96.8683 292° West 107 123 3,600  Level Houston Center
02:27PM 30.0622 -96.9008 293° West 108 124 3,600  Level Houston Center
02:28PM 30.0744 -96.9414 289° West 111 128 3,600 -60 Level Houston Center
02:29PM 30.0842 -96.9733 289° West 108 124 3,500  Descending Houston Center
02:30PM 30.0944 -97.0053 290° West 107 123 3,600  Climbing Houston Center
02:31PM 30.1042 -97.0367 290° West 106 122 3,500 -60 Descending Houston Center
02:32PM 30.1169 -97.0703 294° West 110 127 3,500  Level Houston Center
02:33PM 30.1275 -97.1033 290° West 110 127 3,500  Level Houston Center
02:34PM 30.1392 -97.1367 292° West 110 127 3,600  Climbing Houston Center
02:35PM 30.1522 -97.1747 292° West 109 125 3,600  Level Houston Center
02:36PM 30.1611 -97.2067 288° West 105 121 3,600 -60 Level Houston Center
02:37PM 30.1711 -97.2397 289° West 107 123 3,500  Descending Houston Center
02:38PM 30.1814 -97.2714 291° West 105 121 3,600  Climbing Houston Center
02:39PM 30.1922 -97.3039 291° West 107 123 3,500 -60 Descending Houston Center
02:40PM 30.2028 -97.3361 291° West 106 122 3,500 -60 Level Houston Center
02:41PM 30.2122 -97.3686 289° West 106 122 3,400 -60 Descending Houston Center
02:42PM 30.2222 -97.4019 289° West 107 123 3,400  Level Houston Center
02:43PM 30.2328 -97.4333 291° West 105 121 3,500  Climbing Houston Center
02:44PM 30.2431 -97.4653 290° West 104 120 3,500  Level Houston Center
02:45PM 30.2561 -97.5025 292° West 107 123 3,500  Level Houston Center
02:46PM 30.2678 -97.5342 293° West 106 122 3,500  Level Houston Center
02:47PM 30.2794 -97.5678 292° West 109 125 3,500  Level Houston Center
02:48PM 30.2881 -97.5994 287° West 105 121 3,500 -60 Level Houston Center
02:49PM 30.2969 -97.6311 288° West 103 119 3,400  Descending Houston Center
02:50PM 30.3056 -97.6614 288° West 102 117 3,500  Climbing Houston Center
02:51PM 30.3164 -97.6925 292° West 100 115 3,500  Level Houston Center
02:52PM 30.3269 -97.7253 290° West 105 121 3,500  Level Houston Center
02:53PM 30.3367 -97.7572 289° West 105 121 3,600  Climbing Houston Center
02:54PM 30.3472 -97.7894 291° West 106 122 3,600 -60 Level Houston Center
02:55PM 30.3564 -97.8217 288° West 104 120 3,500  Descending Houston Center
02:56PM 30.3683 -97.8606 290° West 107 123 3,600  Climbing Houston Center
02:57PM 30.3803 -97.8922 294° West 107 123 3,600 -120 Level Houston Center
02:59PM 30.3906 -97.9258 290° West 108 124 3,400 -60 Descending Houston Center
03:00PM 30.4008 -97.9581 290° West 108 124 3,500  Climbing Houston Center
03:01PM 30.4094 -97.9919 286° West 108 124 3,500  Level Houston Center